Anderson, Nebraska
Current Conditions -  °F | °C
As of 8:55 PM on Tuesday 21 Oct 2014 (Local Time) from KHDE Reporting Station
Clear Clear  
Wind Chill: 65°   Ceiling: Unl
Heat Index: 65°   Visibility: 10mi
Dew Point: 55°   Wind: 13mph
Humidity: 70%   Direction: 140°SE
Pressure: 29.95"   Gusts: NA
Location:  40.5251°N, 99.2414°W
Report Text: KHDE 220155Z AUTO 14011KT 10SM CLR 19/13 A2995 RMK AO2 T01850130
Loading
Personal Weather Stations






























Interactive Weather Map
Tropical Storm Tracking
New forecast layout! Learn more

10-Day Weather Forecast

Advertisements
Track Severe Weather on mobile